sensor_id;sensor_type;location;lat;lon;timestamp;P1;durP1;ratioP1;P2;durP2;ratioP2
60700;SDS011;46541;49.894;10.886;2022-09-09T00:00:23;3.83;;;1.20;;
60700;SDS011;46541;49.894;10.886;2022-09-09T00:02:54;4.28;;;1.30;;
60700;SDS011;46541;49.894;10.886;2022-09-09T00:05:41;7.18;;;1.40;;
60700;SDS011;46541;49.894;10.886;2022-09-09T00:08:18;3.85;;;1.58;;
60700;SDS011;46541;49.894;10.886;2022-09-09T00:10:50;1.92;;;1.20;;
60700;SDS011;46541;49.894;10.886;2022-09-09T00:13:24;3.28;;;1.10;;
60700;SDS011;46541;49.894;10.886;2022-09-09T00:16:04;3.33;;;1.42;;
60700;SDS011;46541;49.894;10.886;2022-09-09T00:18:47;4.78;;;1.50;;
60700;SDS011;46541;49.894;10.886;2022-09-09T00:21:34;3.47;;;1.30;;
60700;SDS011;46541;49.894;10.886;2022-09-09T00:27:49;5.30;;;1.17;;
60700;SDS011;46541;49.894;10.886;2022-09-09T00:32:49;3.78;;;1.30;;
60700;SDS011;46541;49.894;10.886;2022-09-09T00:35:28;3.58;;;1.15;;
60700;SDS011;46541;49.894;10.886;2022-09-09T00:37:57;1.75;;;1.15;;
60700;SDS011;46541;49.894;10.886;2022-09-09T00:40:35;5.13;;;1.20;;
60700;SDS011;46541;49.894;10.886;2022-09-09T00:43:10;4.07;;;1.30;;
60700;SDS011;46541;49.894;10.886;2022-09-09T00:48:15;5.47;;;1.08;;
60700;SDS011;46541;49.894;10.886;2022-09-09T00:50:48;2.67;;;1.10;;
60700;SDS011;46541;49.894;10.886;2022-09-09T00:58:42;4.53;;;1.00;;
60700;SDS011;46541;49.894;10.886;2022-09-09T01:01:16;3.03;;;1.25;;
60700;SDS011;46541;49.894;10.886;2022-09-09T01:03:53;3.08;;;1.10;;
60700;SDS011;46541;49.894;10.886;2022-09-09T01:23:08;1.65;;;0.70;;
60700;SDS011;46541;49.894;10.886;2022-09-09T01:28:39;3.85;;;1.33;;
60700;SDS011;46541;49.894;10.886;2022-09-09T01:31:09;5.90;;;1.70;;
60700;SDS011;46541;49.894;10.886;2022-09-09T01:33:41;4.93;;;1.60;;
60700;SDS011;46541;49.894;10.886;2022-09-09T01:36:10;4.38;;;1.20;;
60700;SDS011;46541;49.894;10.886;2022-09-09T01:38:42;5.53;;;1.38;;
60700;SDS011;46541;49.894;10.886;2022-09-09T01:41:09;6.53;;;1.30;;
60700;SDS011;46541;49.894;10.886;2022-09-09T01:43:36;5.38;;;1.42;;
60700;SDS011;46541;49.894;10.886;2022-09-09T01:46:03;3.90;;;1.38;;
60700;SDS011;46541;49.894;10.886;2022-09-09T01:48:31;4.72;;;1.52;;
60700;SDS011;46541;49.894;10.886;2022-09-09T01:50:58;2.75;;;1.25;;
60700;SDS011;46541;49.894;10.886;2022-09-09T01:53:25;4.18;;;1.33;;
60700;SDS011;46541;49.894;10.886;2022-09-09T02:01:59;3.15;;;1.38;;
60700;SDS011;46541;49.894;10.886;2022-09-09T02:04:38;3.05;;;1.27;;
60700;SDS011;46541;49.894;10.886;2022-09-09T02:07:21;2.08;;;1.38;;
60700;SDS011;46541;49.894;10.886;2022-09-09T02:10:05;4.60;;;1.33;;
60700;SDS011;46541;49.894;10.886;2022-09-09T02:12:49;2.90;;;1.10;;
60700;SDS011;46541;49.894;10.886;2022-09-09T02:15:34;2.65;;;1.23;;
60700;SDS011;46541;49.894;10.886;2022-09-09T02:18:08;2.38;;;1.10;;
60700;SDS011;46541;49.894;10.886;2022-09-09T02:20:39;2.85;;;1.05;;
60700;SDS011;46541;49.894;10.886;2022-09-09T02:23:08;2.15;;;1.08;;
60700;SDS011;46541;49.894;10.886;2022-09-09T02:25:38;3.78;;;1.50;;
60700;SDS011;46541;49.894;10.886;2022-09-09T02:28:07;4.15;;;1.50;;
60700;SDS011;46541;49.894;10.886;2022-09-09T02:30:36;4.00;;;1.58;;
60700;SDS011;46541;49.894;10.886;2022-09-09T02:33:05;6.55;;;1.55;;
60700;SDS011;46541;49.894;10.886;2022-09-09T02:35:36;6.80;;;1.80;;
60700;SDS011;46541;49.894;10.886;2022-09-09T02:38:05;4.25;;;1.23;;
60700;SDS011;46541;49.894;10.886;2022-09-09T02:40:34;3.90;;;1.50;;
60700;SDS011;46541;49.894;10.886;2022-09-09T02:43:01;2.58;;;1.27;;
60700;SDS011;46541;49.894;10.886;2022-09-09T02:45:31;3.15;;;1.40;;
60700;SDS011;46541;49.894;10.886;2022-09-09T02:51:02;3.53;;;1.67;;
60700;SDS011;46541;49.894;10.886;2022-09-09T02:57:03;5.20;;;1.63;;
60700;SDS011;46541;49.894;10.886;2022-09-09T02:59:39;5.10;;;1.52;;
60700;SDS011;46541;49.894;10.886;2022-09-09T03:02:07;2.53;;;1.17;;
60700;SDS011;46541;49.894;10.886;2022-09-09T03:04:39;2.17;;;1.08;;
60700;SDS011;46541;49.894;10.886;2022-09-09T03:07:06;1.80;;;1.25;;
60700;SDS011;46541;49.894;10.886;2022-09-09T03:09:33;3.38;;;1.45;;
60700;SDS011;46541;49.894;10.886;2022-09-09T03:12:00;3.47;;;1.40;;
60700;SDS011;46541;49.894;10.886;2022-09-09T03:14:27;1.92;;;1.17;;
60700;SDS011;46541;49.894;10.886;2022-09-09T03:16:53;4.50;;;1.65;;
60700;SDS011;46541;49.894;10.886;2022-09-09T03:19:20;4.38;;;1.30;;
60700;SDS011;46541;49.894;10.886;2022-09-09T03:21:47;4.05;;;1.63;;
60700;SDS011;46541;49.894;10.886;2022-09-09T03:24:14;3.42;;;1.25;;
60700;SDS011;46541;49.894;10.886;2022-09-09T03:26:42;2.10;;;1.20;;
60700;SDS011;46541;49.894;10.886;2022-09-09T03:29:12;4.35;;;1.33;;
60700;SDS011;46541;49.894;10.886;2022-09-09T03:31:39;5.50;;;1.73;;
60700;SDS011;46541;49.894;10.886;2022-09-09T03:34:06;3.22;;;1.27;;
60700;SDS011;46541;49.894;10.886;2022-09-09T03:36:34;3.03;;;1.50;;
60700;SDS011;46541;49.894;10.886;2022-09-09T03:39:01;4.43;;;1.13;;
60700;SDS011;46541;49.894;10.886;2022-09-09T03:41:29;2.40;;;1.23;;
60700;SDS011;46541;49.894;10.886;2022-09-09T03:43:56;2.83;;;1.25;;
60700;SDS011;46541;49.894;10.886;2022-09-09T03:46:24;2.78;;;1.40;;
60700;SDS011;46541;49.894;10.886;2022-09-09T03:48:51;3.88;;;1.40;;
60700;SDS011;46541;49.894;10.886;2022-09-09T03:51:18;5.68;;;1.73;;
60700;SDS011;46541;49.894;10.886;2022-09-09T03:53:45;4.43;;;1.30;;
60700;SDS011;46541;49.894;10.886;2022-09-09T03:56:12;3.28;;;1.52;;
60700;SDS011;46541;49.894;10.886;2022-09-09T03:58:39;4.57;;;1.70;;
60700;SDS011;46541;49.894;10.886;2022-09-09T04:01:11;3.67;;;1.98;;
60700;SDS011;46541;49.894;10.886;2022-09-09T04:03:39;5.15;;;2.25;;
60700;SDS011;46541;49.894;10.886;2022-09-09T04:06:07;6.15;;;1.95;;
60700;SDS011;46541;49.894;10.886;2022-09-09T04:08:37;3.35;;;1.45;;
60700;SDS011;46541;49.894;10.886;2022-09-09T04:11:05;2.38;;;1.33;;
60700;SDS011;46541;49.894;10.886;2022-09-09T04:13:33;6.47;;;1.85;;
60700;SDS011;46541;49.894;10.886;2022-09-09T04:16:02;3.92;;;1.13;;
60700;SDS011;46541;49.894;10.886;2022-09-09T04:18:30;3.45;;;1.50;;
60700;SDS011;46541;49.894;10.886;2022-09-09T04:20:57;2.53;;;1.40;;
60700;SDS011;46541;49.894;10.886;2022-09-09T04:23:25;4.20;;;1.73;;
60700;SDS011;46541;49.894;10.886;2022-09-09T04:25:55;4.57;;;1.50;;
60700;SDS011;46541;49.894;10.886;2022-09-09T04:28:23;1.38;;;1.20;;
60700;SDS011;46541;49.894;10.886;2022-09-09T04:30:52;2.40;;;1.10;;
60700;SDS011;46541;49.894;10.886;2022-09-09T04:33:19;3.17;;;1.48;;
60700;SDS011;46541;49.894;10.886;2022-09-09T04:35:47;5.80;;;1.42;;
60700;SDS011;46541;49.894;10.886;2022-09-09T04:38:16;3.90;;;1.63;;
60700;SDS011;46541;49.894;10.886;2022-09-09T04:40:46;2.85;;;1.35;;
60700;SDS011;46541;49.894;10.886;2022-09-09T04:43:14;3.85;;;1.50;;
60700;SDS011;46541;49.894;10.886;2022-09-09T04:45:41;4.85;;;1.95;;
60700;SDS011;46541;49.894;10.886;2022-09-09T04:48:09;4.95;;;1.95;;
60700;SDS011;46541;49.894;10.886;2022-09-09T04:50:36;3.03;;;1.60;;
60700;SDS011;46541;49.894;10.886;2022-09-09T04:53:03;5.35;;;1.52;;
60700;SDS011;46541;49.894;10.886;2022-09-09T04:55:31;5.13;;;1.35;;
60700;SDS011;46541;49.894;10.886;2022-09-09T04:58:06;2.00;;;1.23;;
60700;SDS011;46541;49.894;10.886;2022-09-09T05:00:34;8.43;;;2.05;;
60700;SDS011;46541;49.894;10.886;2022-09-09T05:03:02;4.35;;;1.27;;
60700;SDS011;46541;49.894;10.886;2022-09-09T05:05:31;8.77;;;1.23;;
60700;SDS011;46541;49.894;10.886;2022-09-09T05:08:03;7.30;;;3.28;;
60700;SDS011;46541;49.894;10.886;2022-09-09T05:10:31;5.13;;;2.42;;
60700;SDS011;46541;49.894;10.886;2022-09-09T05:12:58;5.70;;;2.35;;
60700;SDS011;46541;49.894;10.886;2022-09-09T05:15:25;5.35;;;1.30;;
60700;SDS011;46541;49.894;10.886;2022-09-09T05:17:52;4.32;;;1.80;;
60700;SDS011;46541;49.894;10.886;2022-09-09T05:20:23;3.97;;;1.52;;
60700;SDS011;46541;49.894;10.886;2022-09-09T05:22:52;6.85;;;1.60;;
60700;SDS011;46541;49.894;10.886;2022-09-09T05:25:20;2.95;;;1.30;;
60700;SDS011;46541;49.894;10.886;2022-09-09T05:27:48;4.90;;;1.50;;
60700;SDS011;46541;49.894;10.886;2022-09-09T05:30:15;4.53;;;1.50;;
60700;SDS011;46541;49.894;10.886;2022-09-09T05:32:44;3.10;;;1.58;;
60700;SDS011;46541;49.894;10.886;2022-09-09T05:35:11;2.53;;;1.35;;
60700;SDS011;46541;49.894;10.886;2022-09-09T05:37:39;2.75;;;1.27;;
60700;SDS011;46541;49.894;10.886;2022-09-09T05:40:06;1.88;;;1.25;;
60700;SDS011;46541;49.894;10.886;2022-09-09T05:42:33;4.35;;;1.50;;
60700;SDS011;46541;49.894;10.886;2022-09-09T05:45:00;5.40;;;1.25;;
60700;SDS011;46541;49.894;10.886;2022-09-09T05:47:27;3.20;;;1.08;;
60700;SDS011;46541;49.894;10.886;2022-09-09T05:49:54;2.00;;;1.10;;
60700;SDS011;46541;49.894;10.886;2022-09-09T05:52:21;2.72;;;1.40;;
60700;SDS011;46541;49.894;10.886;2022-09-09T05:54:49;2.30;;;1.35;;
60700;SDS011;46541;49.894;10.886;2022-09-09T05:57:16;3.50;;;1.40;;
60700;SDS011;46541;49.894;10.886;2022-09-09T05:59:43;2.72;;;1.40;;
60700;SDS011;46541;49.894;10.886;2022-09-09T06:02:10;5.75;;;1.52;;
60700;SDS011;46541;49.894;10.886;2022-09-09T06:04:37;2.25;;;1.40;;
60700;SDS011;46541;49.894;10.886;2022-09-09T06:07:04;5.20;;;1.70;;
60700;SDS011;46541;49.894;10.886;2022-09-09T06:09:31;3.25;;;1.30;;
60700;SDS011;46541;49.894;10.886;2022-09-09T06:11:58;5.90;;;1.90;;
60700;SDS011;46541;49.894;10.886;2022-09-09T06:14:25;4.10;;;1.42;;
60700;SDS011;46541;49.894;10.886;2022-09-09T06:16:53;3.13;;;1.35;;
60700;SDS011;46541;49.894;10.886;2022-09-09T06:19:19;5.53;;;1.40;;
60700;SDS011;46541;49.894;10.886;2022-09-09T06:21:46;3.20;;;1.70;;
60700;SDS011;46541;49.894;10.886;2022-09-09T06:24:14;3.63;;;1.48;;
60700;SDS011;46541;49.894;10.886;2022-09-09T06:26:43;5.32;;;1.30;;
60700;SDS011;46541;49.894;10.886;2022-09-09T06:29:10;7.35;;;1.17;;
60700;SDS011;46541;49.894;10.886;2022-09-09T06:31:37;3.90;;;1.15;;
60700;SDS011;46541;49.894;10.886;2022-09-09T06:34:05;4.00;;;1.48;;
60700;SDS011;46541;49.894;10.886;2022-09-09T06:36:34;6.10;;;1.67;;
60700;SDS011;46541;49.894;10.886;2022-09-09T06:39:03;3.45;;;1.30;;
60700;SDS011;46541;49.894;10.886;2022-09-09T06:41:36;3.55;;;1.23;;
60700;SDS011;46541;49.894;10.886;2022-09-09T06:44:04;5.13;;;1.38;;
60700;SDS011;46541;49.894;10.886;2022-09-09T06:46:31;2.60;;;1.15;;
60700;SDS011;46541;49.894;10.886;2022-09-09T06:48:59;5.28;;;2.00;;
60700;SDS011;46541;49.894;10.886;2022-09-09T06:51:28;4.28;;;1.60;;
60700;SDS011;46541;49.894;10.886;2022-09-09T06:53:57;6.22;;;4.32;;
60700;SDS011;46541;49.894;10.886;2022-09-09T06:56:26;3.22;;;1.90;;
60700;SDS011;46541;49.894;10.886;2022-09-09T06:58:55;6.95;;;2.83;;
60700;SDS011;46541;49.894;10.886;2022-09-09T07:01:28;3.10;;;1.70;;
60700;SDS011;46541;49.894;10.886;2022-09-09T07:03:58;5.95;;;2.90;;
60700;SDS011;46541;49.894;10.886;2022-09-09T07:06:29;4.18;;;2.15;;
60700;SDS011;46541;49.894;10.886;2022-09-09T07:09:01;7.70;;;3.03;;
60700;SDS011;46541;49.894;10.886;2022-09-09T07:11:31;4.85;;;3.20;;
60700;SDS011;46541;49.894;10.886;2022-09-09T07:14:00;6.22;;;2.78;;
60700;SDS011;46541;49.894;10.886;2022-09-09T07:16:27;7.47;;;2.90;;
60700;SDS011;46541;49.894;10.886;2022-09-09T07:18:55;4.07;;;1.40;;
60700;SDS011;46541;49.894;10.886;2022-09-09T07:21:27;4.63;;;2.08;;
60700;SDS011;46541;49.894;10.886;2022-09-09T07:23:56;7.63;;;4.25;;
60700;SDS011;46541;49.894;10.886;2022-09-09T07:26:24;5.72;;;3.65;;
60700;SDS011;46541;49.894;10.886;2022-09-09T07:28:55;10.63;;;2.47;;
60700;SDS011;46541;49.894;10.886;2022-09-09T07:31:26;5.18;;;3.05;;
60700;SDS011;46541;49.894;10.886;2022-09-09T07:33:58;3.80;;;1.92;;
60700;SDS011;46541;49.894;10.886;2022-09-09T07:36:27;3.15;;;1.20;;
60700;SDS011;46541;49.894;10.886;2022-09-09T07:39:06;5.65;;;1.40;;
60700;SDS011;46541;49.894;10.886;2022-09-09T07:41:45;7.00;;;1.08;;
60700;SDS011;46541;49.894;10.886;2022-09-09T07:46:42;6.43;;;1.40;;
60700;SDS011;46541;49.894;10.886;2022-09-09T07:49:11;2.33;;;1.17;;
60700;SDS011;46541;49.894;10.886;2022-09-09T07:51:39;1.42;;;0.90;;
60700;SDS011;46541;49.894;10.886;2022-09-09T07:54:09;4.55;;;0.90;;
60700;SDS011;46541;49.894;10.886;2022-09-09T07:56:38;4.35;;;1.15;;
60700;SDS011;46541;49.894;10.886;2022-09-09T07:59:09;1.67;;;1.00;;
60700;SDS011;46541;49.894;10.886;2022-09-09T08:01:38;3.35;;;1.00;;
60700;SDS011;46541;49.894;10.886;2022-09-09T08:04:07;1.88;;;0.73;;
60700;SDS011;46541;49.894;10.886;2022-09-09T08:06:49;3.53;;;0.95;;
60700;SDS011;46541;49.894;10.886;2022-09-09T08:09:21;0.98;;;0.70;;
60700;SDS011;46541;49.894;10.886;2022-09-09T08:11:51;4.03;;;0.75;;
60700;SDS011;46541;49.894;10.886;2022-09-09T08:14:17;1.83;;;0.73;;
60700;SDS011;46541;49.894;10.886;2022-09-09T08:16:46;4.35;;;1.17;;
60700;SDS011;46541;49.894;10.886;2022-09-09T08:19:14;3.72;;;1.05;;
60700;SDS011;46541;49.894;10.886;2022-09-09T08:21:44;3.08;;;0.90;;
60700;SDS011;46541;49.894;10.886;2022-09-09T08:24:11;4.72;;;0.77;;
60700;SDS011;46541;49.894;10.886;2022-09-09T08:26:42;2.40;;;0.68;;
60700;SDS011;46541;49.894;10.886;2022-09-09T08:29:10;2.72;;;0.80;;
60700;SDS011;46541;49.894;10.886;2022-09-09T08:31:40;1.55;;;0.63;;
60700;SDS011;46541;49.894;10.886;2022-09-09T08:34:14;7.22;;;1.10;;
60700;SDS011;46541;49.894;10.886;2022-09-09T08:36:42;4.28;;;0.90;;
60700;SDS011;46541;49.894;10.886;2022-09-09T08:39:11;5.20;;;1.25;;
60700;SDS011;46541;49.894;10.886;2022-09-09T08:41:43;2.22;;;1.05;;
60700;SDS011;46541;49.894;10.886;2022-09-09T08:47:05;2.65;;;0.70;;
60700;SDS011;46541;49.894;10.886;2022-09-09T08:52:54;3.65;;;0.70;;
60700;SDS011;46541;49.894;10.886;2022-09-09T08:55:24;1.85;;;0.65;;
60700;SDS011;46541;49.894;10.886;2022-09-09T08:58:16;2.47;;;0.70;;
60700;SDS011;46541;49.894;10.886;2022-09-09T09:11:38;1.58;;;0.85;;
60700;SDS011;46541;49.894;10.886;2022-09-09T09:14:10;1.83;;;0.80;;
60700;SDS011;46541;49.894;10.886;2022-09-09T09:19:19;2.80;;;0.60;;
60700;SDS011;46541;49.894;10.886;2022-09-09T09:24:54;2.58;;;1.10;;
60700;SDS011;46541;49.894;10.886;2022-09-09T09:27:34;2.65;;;0.90;;
60700;SDS011;46541;49.894;10.886;2022-09-09T09:32:59;3.33;;;0.80;;
60700;SDS011;46541;49.894;10.886;2022-09-09T09:35:34;5.43;;;1.30;;
60700;SDS011;46541;49.894;10.886;2022-09-09T09:38:18;6.32;;;1.40;;
60700;SDS011;46541;49.894;10.886;2022-09-09T09:41:08;4.15;;;1.45;;
60700;SDS011;46541;49.894;10.886;2022-09-09T09:43:35;4.05;;;1.00;;
60700;SDS011;46541;49.894;10.886;2022-09-09T09:46:16;5.68;;;2.00;;
60700;SDS011;46541;49.894;10.886;2022-09-09T09:48:56;6.35;;;3.78;;
60700;SDS011;46541;49.894;10.886;2022-09-09T09:51:24;8.02;;;3.33;;
60700;SDS011;46541;49.894;10.886;2022-09-09T09:53:52;4.07;;;1.48;;
60700;SDS011;46541;49.894;10.886;2022-09-09T09:56:26;3.15;;;1.23;;
60700;SDS011;46541;49.894;10.886;2022-09-09T09:58:55;6.88;;;1.77;;
60700;SDS011;46541;49.894;10.886;2022-09-09T10:03:54;7.00;;;2.33;;
60700;SDS011;46541;49.894;10.886;2022-09-09T10:06:31;4.00;;;1.25;;
60700;SDS011;46541;49.894;10.886;2022-09-09T10:08:59;3.95;;;1.83;;
60700;SDS011;46541;49.894;10.886;2022-09-09T10:22:36;4.60;;;0.90;;
60700;SDS011;46541;49.894;10.886;2022-09-09T10:25:24;9.38;;;1.50;;
60700;SDS011;46541;49.894;10.886;2022-09-09T10:30:35;2.63;;;1.15;;
60700;SDS011;46541;49.894;10.886;2022-09-09T10:39:28;3.33;;;0.88;;
60700;SDS011;46541;49.894;10.886;2022-09-09T10:44:35;1.33;;;0.70;;
60700;SDS011;46541;49.894;10.886;2022-09-09T10:48:13;5.57;;;1.05;;
60700;SDS011;46541;49.894;10.886;2022-09-09T10:53:41;3.05;;;0.77;;
60700;SDS011;46541;49.894;10.886;2022-09-09T10:56:12;6.32;;;0.80;;
60700;SDS011;46541;49.894;10.886;2022-09-09T10:58:52;3.47;;;1.20;;
60700;SDS011;46541;49.894;10.886;2022-09-09T11:01:36;6.82;;;1.83;;
60700;SDS011;46541;49.894;10.886;2022-09-09T11:04:19;5.47;;;1.90;;
60700;SDS011;46541;49.894;10.886;2022-09-09T11:06:55;3.33;;;1.00;;
60700;SDS011;46541;49.894;10.886;2022-09-09T11:09:26;4.93;;;1.08;;
60700;SDS011;46541;49.894;10.886;2022-09-09T11:11:57;2.95;;;1.10;;
60700;SDS011;46541;49.894;10.886;2022-09-09T11:14:29;3.15;;;1.17;;
60700;SDS011;46541;49.894;10.886;2022-09-09T11:17:06;4.07;;;0.88;;
60700;SDS011;46541;49.894;10.886;2022-09-09T11:19:39;2.95;;;0.88;;
60700;SDS011;46541;49.894;10.886;2022-09-09T11:22:27;4.68;;;0.95;;
60700;SDS011;46541;49.894;10.886;2022-09-09T11:40:23;3.90;;;1.65;;
60700;SDS011;46541;49.894;10.886;2022-09-09T11:43:10;6.45;;;2.75;;
60700;SDS011;46541;49.894;10.886;2022-09-09T11:45:42;4.28;;;1.08;;
60700;SDS011;46541;49.894;10.886;2022-09-09T11:48:25;3.83;;;1.67;;
60700;SDS011;46541;49.894;10.886;2022-09-09T11:51:00;8.32;;;2.72;;
60700;SDS011;46541;49.894;10.886;2022-09-09T11:53:55;3.35;;;1.05;;
60700;SDS011;46541;49.894;10.886;2022-09-09T11:56:32;7.40;;;2.78;;
60700;SDS011;46541;49.894;10.886;2022-09-09T11:59:21;4.13;;;1.02;;
60700;SDS011;46541;49.894;10.886;2022-09-09T12:01:58;4.70;;;1.52;;
60700;SDS011;46541;49.894;10.886;2022-09-09T12:06:58;3.15;;;0.80;;
60700;SDS011;46541;49.894;10.886;2022-09-09T12:14:42;5.53;;;1.55;;
60700;SDS011;46541;49.894;10.886;2022-09-09T12:17:21;3.53;;;0.75;;
60700;SDS011;46541;49.894;10.886;2022-09-09T12:30:48;0.38;;;0.30;;
60700;SDS011;46541;49.894;10.886;2022-09-09T12:33:17;0.82;;;0.47;;
60700;SDS011;46541;49.894;10.886;2022-09-09T12:35:46;4.65;;;0.32;;
60700;SDS011;46541;49.894;10.886;2022-09-09T12:40:58;1.02;;;0.30;;
60700;SDS011;46541;49.894;10.886;2022-09-09T12:43:25;1.30;;;0.50;;
60700;SDS011;46541;49.894;10.886;2022-09-09T12:45:54;2.95;;;0.40;;
60700;SDS011;46541;49.894;10.886;2022-09-09T12:48:35;1.65;;;0.28;;
60700;SDS011;46541;49.894;10.886;2022-09-09T12:51:05;0.52;;;0.32;;
60700;SDS011;46541;49.894;10.886;2022-09-09T12:53:42;0.75;;;0.22;;
60700;SDS011;46541;49.894;10.886;2022-09-09T12:56:18;2.72;;;0.60;;
60700;SDS011;46541;49.894;10.886;2022-09-09T12:58:47;1.27;;;0.40;;
60700;SDS011;46541;49.894;10.886;2022-09-09T13:01:22;1.90;;;0.50;;
60700;SDS011;46541;49.894;10.886;2022-09-09T13:03:52;2.25;;;0.38;;
60700;SDS011;46541;49.894;10.886;2022-09-09T13:06:20;3.38;;;0.70;;
60700;SDS011;46541;49.894;10.886;2022-09-09T13:08:55;1.45;;;0.30;;
60700;SDS011;46541;49.894;10.886;2022-09-09T13:11:35;0.47;;;0.20;;
60700;SDS011;46541;49.894;10.886;2022-09-09T13:14:05;0.70;;;0.30;;
60700;SDS011;46541;49.894;10.886;2022-09-09T13:16:33;1.17;;;0.40;;
60700;SDS011;46541;49.894;10.886;2022-09-09T13:19:09;0.55;;;0.30;;
60700;SDS011;46541;49.894;10.886;2022-09-09T13:21:41;2.40;;;0.60;;
60700;SDS011;46541;49.894;10.886;2022-09-09T13:24:30;1.42;;;0.40;;
60700;SDS011;46541;49.894;10.886;2022-09-09T13:27:04;1.35;;;0.30;;
60700;SDS011;46541;49.894;10.886;2022-09-09T13:29:51;3.75;;;0.50;;
60700;SDS011;46541;49.894;10.886;2022-09-09T13:32:22;1.38;;;0.60;;
60700;SDS011;46541;49.894;10.886;2022-09-09T13:35:00;0.90;;;0.32;;
60700;SDS011;46541;49.894;10.886;2022-09-09T13:37:31;3.60;;;1.17;;
60700;SDS011;46541;49.894;10.886;2022-09-09T13:40:01;1.90;;;0.30;;
60700;SDS011;46541;49.894;10.886;2022-09-09T13:42:30;0.55;;;0.40;;
60700;SDS011;46541;49.894;10.886;2022-09-09T13:45:01;1.58;;;0.30;;
60700;SDS011;46541;49.894;10.886;2022-09-09T13:47:34;1.25;;;0.45;;
60700;SDS011;46541;49.894;10.886;2022-09-09T13:52:54;2.42;;;0.70;;
60700;SDS011;46541;49.894;10.886;2022-09-09T13:55:27;1.85;;;0.50;;
60700;SDS011;46541;49.894;10.886;2022-09-09T14:00:34;0.95;;;0.45;;
60700;SDS011;46541;49.894;10.886;2022-09-09T14:03:01;1.15;;;0.40;;
60700;SDS011;46541;49.894;10.886;2022-09-09T14:05:29;1.55;;;0.40;;
60700;SDS011;46541;49.894;10.886;2022-09-09T14:07:58;2.20;;;0.80;;
60700;SDS011;46541;49.894;10.886;2022-09-09T14:10:27;1.70;;;0.40;;
60700;SDS011;46541;49.894;10.886;2022-09-09T14:12:54;1.05;;;0.40;;
60700;SDS011;46541;49.894;10.886;2022-09-09T14:15:20;1.42;;;0.40;;
60700;SDS011;46541;49.894;10.886;2022-09-09T14:17:48;1.65;;;0.57;;
60700;SDS011;46541;49.894;10.886;2022-09-09T14:20:15;0.65;;;0.40;;
60700;SDS011;46541;49.894;10.886;2022-09-09T14:22:43;1.70;;;0.60;;
60700;SDS011;46541;49.894;10.886;2022-09-09T14:25:10;2.05;;;0.50;;
60700;SDS011;46541;49.894;10.886;2022-09-09T14:27:39;1.35;;;0.43;;
60700;SDS011;46541;49.894;10.886;2022-09-09T14:30:07;2.40;;;0.60;;
60700;SDS011;46541;49.894;10.886;2022-09-09T14:32:35;2.03;;;0.47;;
60700;SDS011;46541;49.894;10.886;2022-09-09T14:35:01;2.50;;;0.55;;
60700;SDS011;46541;49.894;10.886;2022-09-09T14:37:28;2.05;;;0.57;;
60700;SDS011;46541;49.894;10.886;2022-09-09T14:39:57;1.27;;;0.40;;
60700;SDS011;46541;49.894;10.886;2022-09-09T14:42:24;1.42;;;0.47;;
60700;SDS011;46541;49.894;10.886;2022-09-09T14:44:52;2.97;;;0.65;;
60700;SDS011;46541;49.894;10.886;2022-09-09T14:47:18;2.13;;;0.75;;
60700;SDS011;46541;49.894;10.886;2022-09-09T14:49:45;0.98;;;0.50;;
60700;SDS011;46541;49.894;10.886;2022-09-09T14:52:12;1.35;;;0.50;;
60700;SDS011;46541;49.894;10.886;2022-09-09T14:54:39;3.63;;;0.63;;
60700;SDS011;46541;49.894;10.886;2022-09-09T14:57:06;5.43;;;1.40;;
60700;SDS011;46541;49.894;10.886;2022-09-09T14:59:33;2.60;;;0.90;;
60700;SDS011;46541;49.894;10.886;2022-09-09T15:02:00;2.00;;;0.60;;
60700;SDS011;46541;49.894;10.886;2022-09-09T15:04:30;1.73;;;0.60;;
60700;SDS011;46541;49.894;10.886;2022-09-09T15:06:57;1.30;;;0.60;;
60700;SDS011;46541;49.894;10.886;2022-09-09T15:09:25;3.90;;;0.75;;
60700;SDS011;46541;49.894;10.886;2022-09-09T15:11:52;0.55;;;0.38;;
60700;SDS011;46541;49.894;10.886;2022-09-09T15:14:18;1.48;;;0.60;;
60700;SDS011;46541;49.894;10.886;2022-09-09T15:16:48;1.20;;;0.57;;
60700;SDS011;46541;49.894;10.886;2022-09-09T15:19:15;1.10;;;0.50;;
60700;SDS011;46541;49.894;10.886;2022-09-09T15:21:42;7.00;;;1.27;;
60700;SDS011;46541;49.894;10.886;2022-09-09T15:24:10;3.50;;;0.77;;
60700;SDS011;46541;49.894;10.886;2022-09-09T15:26:39;2.33;;;0.60;;
60700;SDS011;46541;49.894;10.886;2022-09-09T15:29:06;1.38;;;0.68;;
60700;SDS011;46541;49.894;10.886;2022-09-09T15:31:34;1.88;;;0.70;;
60700;SDS011;46541;49.894;10.886;2022-09-09T15:34:02;2.70;;;0.70;;
60700;SDS011;46541;49.894;10.886;2022-09-09T15:36:32;1.30;;;0.50;;
60700;SDS011;46541;49.894;10.886;2022-09-09T15:39:05;3.60;;;0.75;;
60700;SDS011;46541;49.894;10.886;2022-09-09T15:41:33;2.13;;;0.70;;
60700;SDS011;46541;49.894;10.886;2022-09-09T15:44:00;3.15;;;0.88;;
60700;SDS011;46541;49.894;10.886;2022-09-09T15:51:37;2.92;;;0.70;;
60700;SDS011;46541;49.894;10.886;2022-09-09T15:54:13;0.98;;;0.40;;
60700;SDS011;46541;49.894;10.886;2022-09-09T15:56:43;1.98;;;0.30;;
60700;SDS011;46541;49.894;10.886;2022-09-09T15:59:11;3.90;;;0.80;;
60700;SDS011;46541;49.894;10.886;2022-09-09T16:01:38;1.27;;;0.50;;
60700;SDS011;46541;49.894;10.886;2022-09-09T16:04:09;1.60;;;0.40;;
60700;SDS011;46541;49.894;10.886;2022-09-09T16:06:36;1.33;;;0.38;;
60700;SDS011;46541;49.894;10.886;2022-09-09T16:09:03;4.15;;;0.52;;
60700;SDS011;46541;49.894;10.886;2022-09-09T16:11:33;1.85;;;0.52;;
60700;SDS011;46541;49.894;10.886;2022-09-09T16:14:02;1.90;;;0.52;;
60700;SDS011;46541;49.894;10.886;2022-09-09T16:16:30;2.08;;;0.60;;
60700;SDS011;46541;49.894;10.886;2022-09-09T16:18:58;2.38;;;0.73;;
60700;SDS011;46541;49.894;10.886;2022-09-09T16:21:32;1.55;;;0.43;;
60700;SDS011;46541;49.894;10.886;2022-09-09T16:24:01;2.13;;;0.85;;
60700;SDS011;46541;49.894;10.886;2022-09-09T16:26:31;1.88;;;0.60;;
60700;SDS011;46541;49.894;10.886;2022-09-09T16:28:59;1.92;;;0.57;;
60700;SDS011;46541;49.894;10.886;2022-09-09T16:31:28;1.92;;;0.40;;
60700;SDS011;46541;49.894;10.886;2022-09-09T16:33:55;1.58;;;0.50;;
60700;SDS011;46541;49.894;10.886;2022-09-09T16:36:25;3.08;;;0.70;;
60700;SDS011;46541;49.894;10.886;2022-09-09T16:38:54;1.90;;;0.60;;
60700;SDS011;46541;49.894;10.886;2022-09-09T16:41:23;3.35;;;0.50;;
60700;SDS011;46541;49.894;10.886;2022-09-09T16:43:52;2.63;;;0.68;;
60700;SDS011;46541;49.894;10.886;2022-09-09T16:46:20;1.98;;;0.50;;
60700;SDS011;46541;49.894;10.886;2022-09-09T16:48:48;2.83;;;0.88;;
60700;SDS011;46541;49.894;10.886;2022-09-09T16:53:44;4.18;;;0.73;;
60700;SDS011;46541;49.894;10.886;2022-09-09T16:56:15;1.83;;;0.52;;
60700;SDS011;46541;49.894;10.886;2022-09-09T16:58:43;3.88;;;0.55;;
60700;SDS011;46541;49.894;10.886;2022-09-09T17:01:15;2.50;;;0.68;;
60700;SDS011;46541;49.894;10.886;2022-09-09T17:03:42;2.40;;;0.63;;
60700;SDS011;46541;49.894;10.886;2022-09-09T17:06:09;1.75;;;0.60;;
60700;SDS011;46541;49.894;10.886;2022-09-09T17:08:37;5.95;;;1.27;;
60700;SDS011;46541;49.894;10.886;2022-09-09T17:11:12;4.35;;;0.95;;
60700;SDS011;46541;49.894;10.886;2022-09-09T17:16:09;1.88;;;0.80;;
60700;SDS011;46541;49.894;10.886;2022-09-09T17:18:36;2.45;;;0.70;;
60700;SDS011;46541;49.894;10.886;2022-09-09T17:21:08;4.55;;;0.80;;
60700;SDS011;46541;49.894;10.886;2022-09-09T17:23:39;1.55;;;0.60;;
60700;SDS011;46541;49.894;10.886;2022-09-09T17:26:07;1.83;;;0.65;;
60700;SDS011;46541;49.894;10.886;2022-09-09T17:28:39;3.53;;;1.42;;